Valentine, Texas
Current Conditions -  °F | °C
As of 12:15 AM on Monday 26 Jan 2015 (Local Time) from KMRF Reporting Station
Clear Clear  
Wind Chill: 30°   Ceiling: Unl
Heat Index: 30°   Visibility: 10mi
Dew Point: 27°   Wind: 3mph
Humidity: 86%   Direction: 330°NNW
Pressure: 30.33"   Gusts: NA
Location:  30.59°N, 104.5°W
Report Text: KMRF 260615Z AUTO 33003KT 10SM CLR M01/M03 A3033 RMK AO1
Loading
Personal Weather Stations






























Interactive Weather Map New forecast layout! Learn more

10-Day Weather Forecast

Advertisements
Track Severe Weather on mobile